Time;durP1;ratioP1;P1;durP2;ratioP2;P2;SDS_P1;SDS_P2;PMS_P1;PMS_P2;Temp;Humidity;BMP_temperature;BMP_pressure;BME280_temperature;BME280_humidity;BME280_pressure;Samples;Min_cycle;Max_cycle;Signal;HPM_P1;HPM_P2
2022/01/20 00:00:44;;;;;;;22.77;12.95;;;;;;;18.65;54.03;97461.91;10455013;28;20041;-22
2022/01/20 00:26:55;;;;;;;19.50;11.68;;;;;;;18.66;54.18;97450.97;10452232;28;20036;-22
2022/01/20 00:32:11;;;;;;;19.35;10.93;;;;;;;18.65;53.96;97434.03;10453593;28;20029;-22
2022/01/20 00:37:16;;;;;;;16.27;10.87;;;;;;;18.66;53.80;97425.59;10451922;28;20029;-22
2022/01/20 00:42:17;;;;;;;16.67;10.73;;;;;;;18.67;53.86;97437.44;10426810;28;20408;-22
2022/01/20 00:47:18;;;;;;;17.13;10.15;;;;;;;18.58;54.09;97424.69;10410268;28;20125;-22
2022/01/20 00:52:19;;;;;;;16.17;10.80;;;;;;;18.66;53.72;97433.22;10411456;28;20492;-22
2022/01/20 00:57:19;;;;;;;17.97;10.30;;;;;;;18.68;53.85;97434.06;10435794;28;20033;-22
2022/01/20 01:02:21;;;;;;;17.73;10.53;;;;;;;18.67;53.82;97437.44;10448514;28;20033;-22
2022/01/20 01:12:37;;;;;;;15.18;10.32;;;;;;;18.67;53.94;97442.53;10435154;28;20099;-22
2022/01/20 01:22:56;;;;;;;15.68;10.35;;;;;;;18.66;54.07;97456.88;10408098;28;20033;-22
2022/01/20 01:27:59;;;;;;;20.40;9.70;;;;;;;18.67;53.72;97471.25;10438052;28;20036;-22
2022/01/20 01:32:59;;;;;;;14.02;9.00;;;;;;;18.67;54.03;97467.88;10450643;28;20033;-22
2022/01/20 01:43:13;;;;;;;14.85;9.73;;;;;;;18.64;53.99;97457.69;10417754;28;20022;-21
2022/01/20 01:48:14;;;;;;;13.65;8.45;;;;;;;18.64;53.96;97453.47;10408005;28;20311;-22
2022/01/20 01:53:16;;;;;;;13.83;8.67;;;;;;;18.63;53.76;97438.22;10445252;28;20541;-21
2022/01/20 01:58:17;;;;;;;13.55;8.77;;;;;;;18.65;54.03;97434.03;10447507;28;20407;-22
2022/01/20 02:03:42;;;;;;;;;;;;;;;18.66;53.80;97445.91;10448929;28;20043;-22
2022/01/20 02:19:18;;;;;;;14.57;8.88;;;;;;;18.61;53.84;97415.41;10447224;28;20388;-22
2022/01/20 02:24:21;;;;;;;11.88;7.97;;;;;;;18.62;54.02;97424.72;10446247;28;20039;-22
2022/01/20 02:29:22;;;;;;;15.77;9.55;;;;;;;18.61;54.13;97415.41;10407737;28;20120;-22
2022/01/20 02:34:27;;;;;;;11.20;7.95;;;;;;;18.64;53.81;97425.59;10419239;28;20034;-22
2022/01/20 02:44:52;;;;;;;13.27;8.05;;;;;;;18.66;53.72;97425.59;10432346;28;20523;-21
2022/01/20 02:49:53;;;;;;;13.48;8.43;;;;;;;18.66;53.94;97426.44;10438272;28;20033;-22
2022/01/20 02:54:54;;;;;;;15.77;8.63;;;;;;;18.65;53.74;97424.75;10456073;28;20442;-22
2022/01/20 02:59:55;;;;;;;13.85;8.52;;;;;;;18.65;53.61;97418.81;10456882;28;20025;-22
2022/01/20 03:04:56;;;;;;;15.57;8.50;;;;;;;18.64;53.38;97417.97;10434170;28;20033;-22
2022/01/20 03:10:04;;;;;;;11.13;7.45;;;;;;;18.66;53.59;97433.22;10414693;28;20332;-21
2022/01/20 03:15:06;;;;;;;12.20;8.07;;;;;;;18.66;53.73;97425.59;10415192;28;20132;-21
2022/01/20 03:20:07;;;;;;;13.02;8.10;;;;;;;18.63;53.66;97420.47;10434351;28;20029;-22
2022/01/20 03:25:08;;;;;;;11.27;7.45;;;;;;;18.64;53.67;97412.03;10453632;28;20044;-22
2022/01/20 03:30:09;;;;;;;13.13;8.10;;;;;;;18.66;53.72;97420.53;10454851;28;20128;-22
2022/01/20 03:35:11;;;;;;;17.13;8.52;;;;;;;18.64;53.67;97417.09;10454334;28;20039;-21
2022/01/20 03:40:12;;;;;;;11.60;8.10;;;;;;;18.64;53.60;97423.03;10445023;28;20060;-22
2022/01/20 03:45:13;;;;;;;11.65;7.38;;;;;;;18.65;53.64;97422.19;10413119;28;20068;-23
2022/01/20 03:55:33;;;;;;;13.50;7.82;;;;;;;18.64;53.63;97409.50;10442940;28;20037;-21
2022/01/20 04:00:39;;;;;;;12.57;7.38;;;;;;;18.64;53.75;97410.38;10413298;28;20025;-21
2022/01/20 04:06:00;;;;;;;10.82;7.05;;;;;;;18.63;53.73;97410.34;10428165;28;20072;-21
2022/01/20 04:11:21;;;;;;;13.40;7.30;;;;;;;18.60;53.76;97400.16;10435864;28;20037;-21
2022/01/20 04:16:51;;;;;;;9.70;5.65;;;;;;;18.61;53.88;97401.88;10413525;28;20108;-21
2022/01/20 04:21:50;;;;;;;10.65;7.15;;;;;;;18.64;53.41;97406.97;10446620;28;20044;-21
2022/01/20 04:26:51;;;;;;;11.67;7.13;;;;;;;18.64;53.66;97414.56;10450838;28;20033;-21
2022/01/20 04:31:52;;;;;;;14.30;6.72;;;;;;;18.59;53.77;97412.00;10452084;28;20033;-22
2022/01/20 04:36:54;;;;;;;10.65;6.65;;;;;;;18.61;53.73;97419.63;10448524;28;20037;-22
2022/01/20 04:41:55;;;;;;;15.10;6.72;;;;;;;18.60;53.69;97426.38;10450019;28;20035;-21
2022/01/20 04:47:08;;;;;;;12.90;6.95;;;;;;;18.62;53.71;97426.41;10410420;28;20037;-22
2022/01/20 04:57:29;;;;;;;12.75;7.03;;;;;;;18.65;53.71;97428.94;10388282;28;20045;-21
2022/01/20 05:02:29;;;;;;;10.90;6.83;;;;;;;18.66;53.45;97428.13;10367966;28;20041;-21
2022/01/20 05:07:36;;;;;;;9.45;6.40;;;;;;;18.62;53.40;97426.41;10448054;28;20283;-23
2022/01/20 05:13:26;;;;;;;10.10;7.05;;;;;;;18.67;53.47;97429.84;10449068;28;20454;-22
2022/01/20 05:17:59;;;;;;;10.45;6.00;;;;;;;18.68;53.42;97434.06;10436075;28;20049;-22
2022/01/20 05:23:00;;;;;;;10.52;6.50;;;;;;;18.72;53.09;97440.88;10409366;28;20029;-22
2022/01/20 05:28:03;;;;;;;8.20;5.25;;;;;;;18.73;53.14;97447.63;10439291;28;20032;-23
2022/01/20 05:33:04;;;;;;;8.77;6.00;;;;;;;18.75;52.99;97451.06;10443284;28;20037;-23
2022/01/20 05:38:06;;;;;;;9.00;6.35;;;;;;;18.73;52.87;97447.63;10449724;28;20055;-22
2022/01/20 05:43:07;;;;;;;10.20;5.90;;;;;;;18.71;52.58;97434.97;10435264;28;20124;-23
2022/01/20 05:48:13;;;;;;;10.05;5.40;;;;;;;18.75;52.10;97438.38;10407994;28;20120;-23
2022/01/20 05:53:33;;;;;;;10.27;5.35;;;;;;;18.75;52.01;97435.84;10366524;28;20050;-23
2022/01/20 05:58:36;;;;;;;11.75;5.78;;;;;;;18.74;52.83;97432.44;10402475;28;20029;-22
2022/01/20 06:03:37;;;;;;;10.55;5.68;;;;;;;18.75;53.13;97440.91;10407280;28;20033;-23
2022/01/20 06:08:41;;;;;;;11.18;6.32;;;;;;;18.70;53.39;97442.53;10415849;28;20416;-23
2022/01/20 06:13:42;;;;;;;9.55;6.18;;;;;;;18.70;53.47;97438.34;10410494;28;20026;-23
2022/01/20 06:18:43;;;;;;;8.55;6.18;;;;;;;18.70;53.40;97433.25;10415373;28;20036;-22
2022/01/20 06:23:43;;;;;;;8.00;5.05;;;;;;;18.71;53.55;97429.03;10449330;28;20063;-23
2022/01/20 06:28:44;;;;;;;8.77;5.93;;;;;;;18.65;53.71;97406.13;10410132;28;20145;-23
2022/01/20 06:33:47;;;;;;;15.80;6.70;;;;;;;18.68;54.10;97413.78;10417110;28;20295;-23
2022/01/20 06:38:47;;;;;;;10.23;6.32;;;;;;;18.68;53.59;97423.94;10448499;28;20500;-22
2022/01/20 06:43:48;;;;;;;13.02;5.82;;;;;;;18.68;53.35;97423.94;10429342;28;20036;-22
2022/01/20 06:48:50;;;;;;;14.80;6.28;;;;;;;18.73;53.84;97445.97;10407112;28;20045;-23
2022/01/20 06:54:00;;;;;;;10.38;5.45;;;;;;;18.12;50.45;97471.41;10407943;28;20041;-22
2022/01/20 06:59:00;;;;;;;12.43;6.60;;;;;;;18.47;52.69;97470.19;10446699;28;20037;-22
2022/01/20 07:04:01;;;;;;;11.65;5.85;;;;;;;18.57;53.04;97471.16;10446414;28;20025;-22
2022/01/20 07:09:01;;;;;;;10.70;6.33;;;;;;;18.63;52.72;97482.22;10447801;28;20033;-22
2022/01/20 07:14:02;;;;;;;9.52;6.72;;;;;;;18.64;52.98;97477.97;10406331;28;20319;-22
2022/01/20 07:19:03;;;;;;;10.60;5.28;;;;;;;18.66;52.70;97461.94;10422724;28;20503;-21
2022/01/20 07:24:04;;;;;;;8.07;4.97;;;;;;;18.66;52.89;97471.25;10449752;28;20075;-22
2022/01/20 07:29:05;;;;;;;13.85;5.53;;;;;;;18.67;52.73;97488.19;10413607;28;20459;-22
2022/01/20 07:34:05;;;;;;;13.43;6.80;;;;;;;18.70;52.71;97505.97;10430834;28;20033;-22
2022/01/20 07:39:05;;;;;;;9.75;4.93;;;;;;;18.71;53.00;97500.03;10454306;28;20458;-22
2022/01/20 07:44:06;;;;;;;12.15;4.88;;;;;;;18.53;53.01;97482.09;10430220;28;20438;-19
2022/01/20 07:49:35;;;;;;;7.93;4.93;;;;;;;18.57;53.31;97486.38;10414966;28;20028;-22
2022/01/20 07:54:35;;;;;;;8.45;4.45;;;;;;;18.50;51.42;97499.81;10451842;28;20033;-22
2022/01/20 07:59:36;;;;;;;8.50;4.70;;;;;;;18.61;52.85;97508.38;10453229;28;20056;-22
2022/01/20 08:04:37;;;;;;;9.50;4.88;;;;;;;18.61;52.91;97529.53;10435944;28;20040;-22
2022/01/20 08:09:43;;;;;;;6.65;4.70;;;;;;;18.63;52.54;97548.16;10415523;28;20040;-22
2022/01/20 08:14:49;;;;;;;7.03;5.00;;;;;;;18.63;52.65;97557.44;10453129;28;20033;-22
2022/01/20 08:19:59;;;;;;;6.85;4.68;;;;;;;18.64;52.57;97569.28;10452276;28;20044;-22
2022/01/20 08:25:06;;;;;;;6.70;4.00;;;;;;;18.62;52.58;97573.50;10445844;28;20029;-22
2022/01/20 08:30:09;;;;;;;8.55;4.43;;;;;;;18.64;52.54;97571.81;10412686;28;20033;-22
2022/01/20 08:35:11;;;;;;;5.93;4.25;;;;;;;18.62;52.52;97581.97;10432086;28;20043;-22
2022/01/20 08:40:30;;;;;;;5.53;3.63;;;;;;;18.66;52.56;97590.47;10440859;28;20381;-22
2022/01/20 08:45:34;;;;;;;7.57;4.00;;;;;;;18.65;52.58;97593.81;10410988;28;20037;-22
2022/01/20 08:50:34;;;;;;;8.75;4.85;;;;;;;18.67;52.41;97592.19;10436598;28;20039;-22
2022/01/20 08:55:37;;;;;;;6.85;3.78;;;;;;;18.65;52.32;97586.19;10450083;28;20043;-22
2022/01/20 09:00:44;;;;;;;5.97;3.88;;;;;;;18.67;52.41;97597.25;10452053;28;20071;-22
2022/01/20 09:05:45;;;;;;;5.50;3.88;;;;;;;18.66;52.20;97603.16;10449549;28;20032;-22
2022/01/20 09:10:53;;;;;;;4.53;3.50;;;;;;;18.67;52.31;97608.22;10437300;28;20129;-22
2022/01/20 09:15:55;;;;;;;6.43;3.60;;;;;;;18.66;52.28;97618.38;10410004;28;20533;-23
2022/01/20 09:21:28;;;;;;;7.50;3.90;;;;;;;18.65;52.41;97624.25;10406755;28;20030;-22
2022/01/20 09:26:33;;;;;;;6.82;4.07;;;;;;;18.63;52.38;97628.47;10427940;28;20029;-22
2022/01/20 09:31:38;;;;;;;5.28;3.95;;;;;;;18.63;52.29;97633.53;10450199;28;20284;-22
2022/01/20 09:36:41;;;;;;;4.93;3.40;;;;;;;18.63;52.31;97646.22;10448533;28;20040;-22
2022/01/20 09:41:44;;;;;;;5.78;4.00;;;;;;;18.62;52.36;97647.91;10448512;28;20531;-23
2022/01/20 09:46:46;;;;;;;5.18;3.25;;;;;;;18.62;52.45;97644.50;10409134;28;20034;-22
2022/01/20 09:52:00;;;;;;;6.82;3.38;;;;;;;18.59;52.24;97636.88;10408583;28;20041;-22
2022/01/20 09:57:17;;;;;;;4.53;3.58;;;;;;;18.61;52.31;97637.75;10432042;28;20067;-22
2022/01/20 10:02:19;;;;;;;4.93;3.88;;;;;;;18.60;52.30;97638.56;10443521;28;20578;-22
2022/01/20 10:07:22;;;;;;;5.47;3.53;;;;;;;18.63;52.25;97648.75;10407596;28;20520;-22
2022/01/20 10:12:34;;;;;;;3.80;3.03;;;;;;;18.63;52.30;97643.69;10433361;28;20029;-22
2022/01/20 10:17:48;;;;;;;;;;;;;;;18.60;52.28;97648.72;10448792;28;20061;-22
2022/01/20 10:22:56;;;;;;;4.28;3.30;;;;;;;18.63;52.25;97643.69;10446995;28;19958;-22
2022/01/20 10:28:20;;;;;;;5.47;3.20;;;;;;;18.63;52.08;97642.00;10411901;28;20049;-22
2022/01/20 10:33:23;;;;;;;5.38;3.60;;;;;;;18.66;51.93;97634.44;10415825;28;20087;-22
2022/01/20 10:38:25;;;;;;;4.95;3.40;;;;;;;18.63;52.17;97643.69;10446460;28;20502;-22
2022/01/20 10:43:34;;;;;;;4.45;3.20;;;;;;;18.62;52.19;97637.78;10411901;28;20400;-23
2022/01/20 10:49:00;;;;;;;3.92;3.15;;;;;;;18.55;52.14;97633.44;10413587;28;20049;-23
2022/01/20 10:54:09;;;;;;;3.65;2.85;;;;;;;18.64;52.10;97625.09;10447982;28;20511;-22
2022/01/20 10:59:11;;;;;;;3.55;2.75;;;;;;;18.65;52.01;97621.72;10409826;28;20084;-22
2022/01/20 11:04:12;;;;;;;4.57;3.30;;;;;;;18.65;51.99;97616.63;10430701;28;20033;-22
2022/01/20 11:09:16;;;;;;;4.13;3.30;;;;;;;18.64;52.13;97615.81;10454975;28;20275;-22
2022/01/20 11:14:37;;;;;;;4.05;2.78;;;;;;;18.63;51.84;97608.16;10375118;28;20042;-22
2022/01/20 11:19:38;;;;;;;13.32;3.65;;;;;;;18.26;48.10;97608.47;10395094;28;20029;-22
2022/01/20 11:24:41;;;;;;;8.38;3.15;;;;;;;18.51;51.63;97601.25;10447579;28;20064;-22
2022/01/20 11:30:21;;;;;;;7.43;3.22;;;;;;;18.59;51.86;97602.19;10454428;28;20487;-22
2022/01/20 11:35:56;;;;;;;4.93;3.25;;;;;;;18.62;52.13;97596.31;10452941;28;20037;-22
2022/01/20 11:41:01;;;;;;;7.07;3.20;;;;;;;18.62;52.15;97609.00;10454464;28;20107;-22
2022/01/20 11:46:15;;;;;;;4.50;3.03;;;;;;;18.64;52.43;97602.25;10419351;28;20479;-22
2022/01/20 11:51:17;;;;;;;5.60;2.22;;;;;;;18.53;50.42;97594.53;10431419;28;20300;-22
2022/01/20 11:56:27;;;;;;;8.02;2.78;;;;;;;18.66;52.29;97590.47;10436180;28;20122;-23
2022/01/20 12:01:30;;;;;;;4.90;2.90;;;;;;;18.67;52.33;97569.34;10421816;28;20079;-22
2022/01/20 12:06:37;;;;;;;8.00;2.83;;;;;;;18.72;52.13;97570.22;10454980;28;20091;-22
2022/01/20 12:11:47;;;;;;;5.60;2.97;;;;;;;18.71;52.15;97571.94;10430909;28;20120;-22
2022/01/20 12:16:48;;;;;;;4.53;2.83;;;;;;;18.72;52.14;97557.56;10413244;28;20476;-22
2022/01/20 12:21:49;;;;;;;4.38;2.70;;;;;;;18.74;52.29;97545.75;10452293;28;20094;-22
2022/01/20 12:26:49;;;;;;;6.25;3.45;;;;;;;18.32;48.27;97540.16;10431790;28;20469;-22
2022/01/20 12:31:56;;;;;;;5.03;2.90;;;;;;;18.45;51.74;97507.38;10412472;28;20048;-22
2022/01/20 12:36:58;;;;;;;6.45;3.10;;;;;;;18.58;52.31;97521.03;10449891;28;20033;-20
2022/01/20 12:42:01;;;;;;;7.68;2.30;;;;;;;18.60;52.66;97516.84;10448585;28;20037;-22
2022/01/20 12:47:01;;;;;;;5.43;2.65;;;;;;;18.60;53.08;97510.06;10411729;28;20041;-22
2022/01/20 12:52:05;;;;;;;6.05;2.60;;;;;;;18.65;53.51;97520.25;10448747;28;20033;-22
2022/01/20 12:57:09;;;;;;;6.90;3.40;;;;;;;18.66;53.24;97522.00;10428037;28;20445;-22
2022/01/20 13:02:23;;;;;;;8.25;3.00;;;;;;;18.63;53.31;97514.31;10411608;28;20029;-22
2022/01/20 13:07:24;;;;;;;6.10;2.72;;;;;;;18.63;53.38;97512.66;10441737;28;20069;-22
2022/01/20 13:12:36;;;;;;;5.68;2.40;;;;;;;18.65;53.22;97510.13;10425409;28;20128;-22
2022/01/20 13:17:36;;;;;;;5.65;2.60;;;;;;;18.60;53.31;97511.75;10410519;28;20059;-22
2022/01/20 13:22:53;;;;;;;4.70;2.50;;;;;;;18.63;53.21;97511.78;10450465;28;20472;-22
2022/01/20 13:27:59;;;;;;;5.15;2.38;;;;;;;18.61;53.09;97493.16;10420375;28;20358;-22
2022/01/20 13:33:00;;;;;;;4.13;1.97;;;;;;;18.63;53.33;97494.03;10413881;28;20087;-23
2022/01/20 13:38:03;;;;;;;5.40;2.13;;;;;;;18.67;53.10;97495.78;10451854;28;20098;-22
2022/01/20 13:48:25;;;;;;;5.57;2.38;;;;;;;18.67;52.96;97508.47;10392154;28;20037;-23
2022/01/20 13:53:27;;;;;;;3.80;2.35;;;;;;;18.66;53.10;97532.13;10380519;28;20145;-22
2022/01/20 13:58:30;;;;;;;9.82;3.05;;;;;;;18.65;52.98;97550.69;10399587;28;20041;-23
2022/01/20 14:03:31;;;;;;;2.90;2.30;;;;;;;18.61;53.02;97559.13;10389296;28;20030;-22
2022/01/20 14:08:35;;;;;;;5.83;2.43;;;;;;;18.59;53.21;97560.78;10362446;28;20511;-23
2022/01/20 14:13:36;;;;;;;5.07;2.28;;;;;;;18.59;52.80;97565.84;10410125;28;20045;-22
2022/01/20 14:18:42;;;;;;;2.97;1.97;;;;;;;18.60;53.01;97585.31;10412370;28;20033;-23
2022/01/20 14:23:43;;;;;;;4.68;2.22;;;;;;;18.58;52.95;97579.38;10437179;28;20029;-23
2022/01/20 14:28:43;;;;;;;4.47;2.30;;;;;;;18.59;53.11;97581.06;10447571;28;20040;-22
2022/01/20 14:33:44;;;;;;;5.85;2.95;;;;;;;18.58;52.90;97574.31;10446320;28;20079;-22
2022/01/20 14:38:44;;;;;;;4.07;2.60;;;;;;;18.60;52.79;97573.47;10465351;28;20060;-23
2022/01/20 14:43:44;;;;;;;6.73;2.77;;;;;;;18.63;52.62;97573.53;10448461;28;20026;-22
2022/01/20 14:48:45;;;;;;;12.23;5.47;;;;;;;18.64;52.81;97579.44;10423997;28;20041;-22
2022/01/20 14:53:45;;;;;;;13.10;7.53;;;;;;;18.63;53.07;97575.19;10425575;28;20103;-22
2022/01/20 14:58:46;;;;;;;15.60;8.73;;;;;;;18.63;53.07;97567.59;10425474;28;20434;-22
2022/01/20 15:03:47;;;;;;;18.30;9.73;;;;;;;18.61;53.10;97574.34;10437247;28;20641;-22
2022/01/20 15:08:47;;;;;;;22.33;11.40;;;;;;;18.62;53.00;97573.50;10466725;28;20047;-22
2022/01/20 15:13:47;;;;;;;23.33;13.10;;;;;;;18.64;53.12;97569.28;10465082;28;20066;-22
2022/01/20 15:18:48;;;;;;;26.03;13.23;;;;;;;18.65;53.06;97578.59;10457989;28;20034;-22
2022/01/20 15:23:50;;;;;;;27.63;14.75;;;;;;;18.61;52.89;97585.34;10424184;28;20287;-22
2022/01/20 15:28:57;;;;;;;25.55;14.02;;;;;;;18.65;53.15;97598.88;10420928;28;20060;-22
2022/01/20 15:33:58;;;;;;;24.58;14.65;;;;;;;18.67;53.12;97600.63;10436409;28;20037;-22
2022/01/20 15:38:59;;;;;;;28.58;14.75;;;;;;;18.65;52.68;97601.41;10462509;28;20037;-23
2022/01/20 15:44:00;;;;;;;29.92;16.52;;;;;;;18.60;52.77;97603.06;10458074;28;20037;-22
2022/01/20 15:49:00;;;;;;;27.13;15.93;;;;;;;18.64;52.78;97636.09;10441015;28;20674;-23
2022/01/20 15:54:01;;;;;;;26.90;15.90;;;;;;;18.63;52.84;97646.22;10414740;28;20095;-22
2022/01/20 15:59:04;;;;;;;28.30;13.83;;;;;;;18.63;52.75;97658.91;10422017;28;20451;-22
2022/01/20 16:04:05;;;;;;;23.77;13.10;;;;;;;18.62;52.67;97658.06;10423165;28;20288;-23
2022/01/20 16:09:06;;;;;;;26.90;14.50;;;;;;;18.59;52.84;97652.09;10455604;28;20037;-22
2022/01/20 16:14:06;;;;;;;27.50;16.60;;;;;;;18.38;52.95;97636.53;10413521;28;20045;-22
2022/01/20 16:19:09;;;;;;;27.43;16.60;;;;;;;18.66;52.50;97685.16;10423914;28;20039;-23
2022/01/20 16:24:10;;;;;;;26.35;15.82;;;;;;;18.66;52.85;97680.09;10454625;28;20056;-22
2022/01/20 16:29:10;;;;;;;27.90;16.23;;;;;;;18.67;52.80;97684.31;10452441;28;20053;-22
2022/01/20 16:34:11;;;;;;;26.57;14.13;;;;;;;18.64;52.33;97681.75;10449019;28;20041;-22
2022/01/20 16:39:12;;;;;;;30.70;16.83;;;;;;;18.62;52.92;97682.56;10452903;28;20098;-22
2022/01/20 16:44:12;;;;;;;27.08;13.35;;;;;;;18.63;52.17;97680.06;10407103;28;20087;-22
2022/01/20 16:49:13;;;;;;;26.80;15.90;;;;;;;18.65;52.84;97682.59;10393167;28;20041;-24
2022/01/20 16:54:14;;;;;;;25.58;14.93;;;;;;;18.66;52.72;97692.78;10399335;28;20163;-26
2022/01/20 16:59:14;;;;;;;24.77;14.23;;;;;;;18.68;52.50;97685.19;10378049;28;20057;-22
2022/01/20 17:04:14;;;;;;;26.33;15.00;;;;;;;18.72;52.70;97699.59;10381893;28;20056;-22
2022/01/20 17:09:15;;;;;;;22.97;14.10;;;;;;;18.64;52.99;97696.09;10367707;28;20450;-22
2022/01/20 17:14:19;;;;;;;36.67;14.77;;;;;;;18.68;52.95;97708.84;10380077;28;20052;-22
2022/01/20 17:19:19;;;;;;;28.63;14.75;;;;;;;18.69;52.75;97717.34;10415062;28;20670;-23
2022/01/20 17:24:19;;;;;;;28.13;15.30;;;;;;;18.69;52.77;97727.47;10422994;28;20044;-22
2022/01/20 17:29:20;;;;;;;25.53;14.50;;;;;;;18.70;53.10;97740.19;10451435;28;21128;-22
2022/01/20 17:34:20;;;;;;;28.90;16.23;;;;;;;18.69;53.31;97742.69;10444659;28;20029;-22
2022/01/20 17:39:23;;;;;;;29.13;15.60;;;;;;;18.67;53.26;97740.13;10449491;28;20403;-22
2022/01/20 17:44:23;;;;;;;28.05;14.50;;;;;;;18.69;53.37;97740.16;10433333;28;20057;-22
2022/01/20 17:49:23;;;;;;;29.13;15.03;;;;;;;18.68;53.63;97739.28;10409254;28;20456;-22
2022/01/20 17:54:25;;;;;;;29.30;14.80;;;;;;;18.65;53.72;97736.72;10396458;28;20585;-22
2022/01/20 17:59:25;;;;;;;27.40;13.80;;;;;;;18.70;53.47;97755.41;10403437;28;20298;-22
2022/01/20 18:04:26;;;;;;;27.33;14.57;;;;;;;18.69;53.39;97760.47;10409400;28;20037;-22
2022/01/20 18:09:27;;;;;;;25.13;13.40;;;;;;;18.75;53.19;97770.72;10393506;28;20045;-22
2022/01/20 18:14:27;;;;;;;25.85;13.82;;;;;;;18.72;53.31;97768.97;10404295;28;20033;-22
2022/01/20 18:19:27;;;;;;;21.60;13.73;;;;;;;18.71;53.21;97769.81;10448259;28;20403;-22
2022/01/20 18:24:28;;;;;;;21.63;12.97;;;;;;;18.73;53.16;97777.41;10447037;28;20392;-22
2022/01/20 18:29:28;;;;;;;21.87;12.83;;;;;;;18.70;53.50;97787.53;10408778;28;20061;-22
2022/01/20 18:34:29;;;;;;;24.70;13.25;;;;;;;18.65;53.46;97789.13;10409837;28;20048;-22
2022/01/20 18:39:29;;;;;;;23.58;13.75;;;;;;;18.63;53.33;97776.44;10409458;28;20522;-22
2022/01/20 18:44:30;;;;;;;22.90;13.03;;;;;;;18.73;53.13;97782.50;10449206;28;20054;-22
2022/01/20 18:49:30;;;;;;;23.43;12.60;;;;;;;18.70;53.28;97777.38;10448291;28;20653;-22
2022/01/20 18:54:30;;;;;;;23.67;12.57;;;;;;;18.72;53.36;97774.03;10391412;28;20304;-23
2022/01/20 18:59:32;;;;;;;20.52;11.77;;;;;;;18.82;52.89;97787.75;10382482;28;20487;-22
2022/01/20 19:04:33;;;;;;;21.33;11.10;;;;;;;18.85;53.55;97791.16;10403819;28;20037;-23
2022/01/20 19:09:34;;;;;;;19.95;10.88;;;;;;;18.88;52.87;97787.81;10385823;28;20034;-22
2022/01/20 19:14:35;;;;;;;22.92;12.23;;;;;;;18.85;53.44;97792.84;10367802;28;20046;-22
2022/01/20 19:19:35;;;;;;;19.92;11.57;;;;;;;18.80;53.40;97795.31;10368060;28;20037;-23
2022/01/20 19:24:38;;;;;;;17.77;9.87;;;;;;;18.80;53.13;97795.31;10382566;28;20496;-22
2022/01/20 19:29:40;;;;;;;18.83;10.60;;;;;;;18.79;52.45;97796.16;10414654;28;20033;-22
2022/01/20 19:34:42;;;;;;;19.50;11.30;;;;;;;18.69;53.13;97776.53;10414823;28;20116;-22
2022/01/20 19:39:45;;;;;;;18.67;12.05;;;;;;;18.62;53.31;97763.72;10375547;28;20036;-22
2022/01/20 19:44:46;;;;;;;19.35;11.05;;;;;;;18.81;52.82;97786.00;10369792;28;20069;-22
2022/01/20 19:49:47;;;;;;;16.05;9.93;;;;;;;18.77;52.92;97781.72;10383673;28;20416;-22
2022/01/20 19:54:47;;;;;;;16.50;10.43;;;;;;;18.76;52.90;97798.63;10393849;28;20047;-23
2022/01/20 19:59:47;;;;;;;17.30;9.97;;;;;;;18.53;52.99;97763.56;10383490;28;20496;-22
2022/01/20 20:04:48;;;;;;;16.15;10.20;;;;;;;18.79;52.84;97788.53;10384265;28;20301;-22
2022/01/20 20:09:49;;;;;;;17.13;10.73;;;;;;;18.78;53.12;97811.34;10390512;28;20041;-22
2022/01/20 20:14:49;;;;;;;14.90;9.00;;;;;;;18.78;52.85;97822.34;10396830;28;20034;-22
2022/01/20 20:19:50;;;;;;;18.97;10.23;;;;;;;18.74;52.99;97814.69;10395404;28;20504;-22
2022/01/20 20:24:50;;;;;;;16.53;9.90;;;;;;;18.72;52.99;97804.50;10377082;28;20029;-22
2022/01/20 20:29:50;;;;;;;13.87;8.67;;;;;;;18.79;52.71;97805.44;10412837;28;20037;-22
2022/01/20 20:34:51;;;;;;;16.40;8.40;;;;;;;18.76;51.85;97816.38;10413278;28;20362;-22
2022/01/20 20:39:52;;;;;;;13.25;8.18;;;;;;;18.76;52.12;97807.94;10405328;28;20284;-22
2022/01/20 20:44:56;;;;;;;15.95;9.40;;;;;;;18.75;52.39;97811.31;10399188;28;20103;-22
2022/01/20 20:49:56;;;;;;;14.43;9.30;;;;;;;18.74;52.55;97812.97;10403515;28;20030;-22
2022/01/20 20:54:57;;;;;;;14.00;7.73;;;;;;;18.73;52.68;97803.66;10403593;28;20029;-22
2022/01/20 20:59:58;;;;;;;12.90;7.80;;;;;;;18.73;52.41;97790.97;10408866;28;20125;-22
2022/01/20 21:04:58;;;;;;;14.52;8.38;;;;;;;18.75;52.76;97801.16;10411200;28;20439;-22
2022/01/20 21:09:59;;;;;;;15.07;7.37;;;;;;;18.75;53.00;97806.22;10410756;28;20404;-23
2022/01/20 21:15:00;;;;;;;12.15;8.07;;;;;;;18.74;53.05;97805.38;10410221;28;20116;-22
2022/01/20 21:20:01;;;;;;;9.90;6.82;;;;;;;18.70;53.20;97808.69;10429063;28;20033;-22
2022/01/20 21:25:03;;;;;;;18.83;7.47;;;;;;;18.75;53.24;97816.38;10444988;28;20033;-22
2022/01/20 21:30:07;;;;;;;13.75;8.13;;;;;;;18.76;53.36;97834.13;10411307;28;20033;-22
2022/01/20 21:35:11;;;;;;;15.05;7.80;;;;;;;18.73;53.51;97818.00;10430683;28;20041;-22
2022/01/20 21:40:12;;;;;;;10.98;6.70;;;;;;;18.73;53.65;97818.00;10442288;28;20029;-24
2022/01/20 21:45:13;;;;;;;13.82;7.50;;;;;;;18.71;53.87;97830.69;10409229;28;20044;-22
2022/01/20 21:50:13;;;;;;;12.20;7.03;;;;;;;18.72;53.71;97831.53;10426923;28;20064;-22
2022/01/20 21:55:15;;;;;;;10.35;6.80;;;;;;;18.72;53.78;97826.44;10425325;28;20040;-22
2022/01/20 22:00:16;;;;;;;9.73;6.78;;;;;;;18.72;53.85;97816.31;10450461;28;20037;-23
2022/01/20 22:05:16;;;;;;;13.43;7.57;;;;;;;18.70;53.54;97833.19;10448642;28;20037;-22
2022/01/20 22:10:38;;;;;;;10.25;6.75;;;;;;;18.70;53.86;97838.25;10448938;28;20048;-23
2022/01/20 22:15:37;;;;;;;13.63;7.55;;;;;;;18.70;53.79;97849.28;10450030;28;20048;-22
2022/01/20 22:20:39;;;;;;;11.20;6.73;;;;;;;18.69;53.75;97847.56;10430582;28;20496;-22
2022/01/20 22:25:39;;;;;;;9.82;6.53;;;;;;;18.69;53.78;97852.66;10418820;28;20186;-22
2022/01/20 22:30:40;;;;;;;12.30;7.55;;;;;;;18.68;53.66;97852.63;10449889;28;20699;-22
2022/01/20 22:35:41;;;;;;;8.45;6.13;;;;;;;18.69;53.75;97867.88;10447600;28;20037;-22
2022/01/20 22:40:42;;;;;;;10.35;6.40;;;;;;;18.69;53.66;97875.47;10448147;28;20540;-23
2022/01/20 22:45:43;;;;;;;9.35;5.70;;;;;;;18.68;53.71;97866.13;10449087;28;20075;-22
2022/01/20 22:50:43;;;;;;;10.33;6.40;;;;;;;18.68;53.92;97875.44;10429474;28;20555;-22
2022/01/20 22:55:44;;;;;;;11.73;7.03;;;;;;;18.68;53.93;97873.75;10424735;28;20499;-22
2022/01/20 23:00:47;;;;;;;11.38;6.78;;;;;;;18.70;53.62;97883.94;10457610;28;20267;-22
2022/01/20 23:05:48;;;;;;;8.35;5.47;;;;;;;18.68;53.58;97875.44;10438021;28;20451;-22
2022/01/20 23:10:49;;;;;;;8.45;6.00;;;;;;;18.69;53.63;97884.75;10416397;28;20045;-22
2022/01/20 23:15:59;;;;;;;9.20;5.68;;;;;;;18.69;53.71;97900.84;10415481;28;20044;-22
2022/01/20 23:21:03;;;;;;;9.55;6.28;;;;;;;18.69;53.33;97887.28;10414566;28;20029;-22
2022/01/20 23:26:08;;;;;;;10.57;5.57;;;;;;;18.70;53.71;97897.47;10411807;28;20121;-22
2022/01/20 23:31:13;;;;;;;8.23;5.78;;;;;;;18.71;53.52;97905.94;10411717;28;20072;-22
2022/01/20 23:36:14;;;;;;;10.05;5.95;;;;;;;18.71;53.41;97903.38;10441631;28;20029;-22
2022/01/20 23:41:22;;;;;;;7.43;5.47;;;;;;;18.68;53.40;97890.66;10438930;28;20029;-22
2022/01/20 23:51:45;;;;;;;9.05;5.38;;;;;;;18.71;53.15;97896.66;10435022;28;20043;-23
2022/01/20 23:56:45;;;;;;;8.85;4.88;;;;;;;18.70;53.28;97909.28;10433427;28;20569;-22
